sensor_id;sensor_type;location;lat;lon;timestamp;P1;durP1;ratioP1;P2;durP2;ratioP2
60014;SDS011;45867;52.480;6.056;2022-12-16T00:00:28;71.05;;;30.73;;
60014;SDS011;45867;52.480;6.056;2022-12-16T00:02:53;66.90;;;31.40;;
60014;SDS011;45867;52.480;6.056;2022-12-16T00:05:19;70.07;;;31.13;;
60014;SDS011;45867;52.480;6.056;2022-12-16T00:07:45;60.42;;;29.35;;
60014;SDS011;45867;52.480;6.056;2022-12-16T00:10:11;56.67;;;29.45;;
60014;SDS011;45867;52.480;6.056;2022-12-16T00:12:36;67.00;;;30.20;;
60014;SDS011;45867;52.480;6.056;2022-12-16T00:15:02;61.17;;;30.40;;
60014;SDS011;45867;52.480;6.056;2022-12-16T00:17:28;69.00;;;31.45;;
60014;SDS011;45867;52.480;6.056;2022-12-16T00:19:54;62.35;;;30.60;;
60014;SDS011;45867;52.480;6.056;2022-12-16T00:22:19;59.72;;;31.45;;
60014;SDS011;45867;52.480;6.056;2022-12-16T00:24:45;61.08;;;31.75;;
60014;SDS011;45867;52.480;6.056;2022-12-16T00:27:10;68.65;;;32.35;;
60014;SDS011;45867;52.480;6.056;2022-12-16T00:29:35;67.82;;;32.15;;
60014;SDS011;45867;52.480;6.056;2022-12-16T00:32:01;65.18;;;31.52;;
60014;SDS011;45867;52.480;6.056;2022-12-16T00:34:27;64.05;;;33.10;;
60014;SDS011;45867;52.480;6.056;2022-12-16T00:36:52;73.47;;;34.25;;
60014;SDS011;45867;52.480;6.056;2022-12-16T00:39:17;65.30;;;32.92;;
60014;SDS011;45867;52.480;6.056;2022-12-16T00:41:43;63.80;;;31.63;;
60014;SDS011;45867;52.480;6.056;2022-12-16T00:44:08;71.13;;;33.20;;
60014;SDS011;45867;52.480;6.056;2022-12-16T00:46:34;66.13;;;32.92;;
60014;SDS011;45867;52.480;6.056;2022-12-16T00:48:59;68.80;;;32.80;;
60014;SDS011;45867;52.480;6.056;2022-12-16T00:51:24;62.97;;;32.55;;
60014;SDS011;45867;52.480;6.056;2022-12-16T00:53:50;73.32;;;32.65;;
60014;SDS011;45867;52.480;6.056;2022-12-16T00:56:16;73.03;;;32.47;;
60014;SDS011;45867;52.480;6.056;2022-12-16T00:58:45;77.43;;;32.97;;
60014;SDS011;45867;52.480;6.056;2022-12-16T01:01:11;72.05;;;31.65;;
60014;SDS011;45867;52.480;6.056;2022-12-16T01:03:37;68.25;;;31.77;;
60014;SDS011;45867;52.480;6.056;2022-12-16T01:06:06;66.70;;;30.05;;
60014;SDS011;45867;52.480;6.056;2022-12-16T01:08:33;75.05;;;33.05;;
60014;SDS011;45867;52.480;6.056;2022-12-16T01:10:59;61.55;;;30.45;;
60014;SDS011;45867;52.480;6.056;2022-12-16T01:13:24;52.05;;;27.95;;
60014;SDS011;45867;52.480;6.056;2022-12-16T01:15:50;61.55;;;29.90;;
60014;SDS011;45867;52.480;6.056;2022-12-16T01:18:16;60.38;;;29.63;;
60014;SDS011;45867;52.480;6.056;2022-12-16T01:20:42;67.03;;;29.17;;
60014;SDS011;45867;52.480;6.056;2022-12-16T01:23:07;71.60;;;30.02;;
60014;SDS011;45867;52.480;6.056;2022-12-16T01:25:33;64.45;;;28.92;;
60014;SDS011;45867;52.480;6.056;2022-12-16T01:27:59;66.60;;;30.02;;
60014;SDS011;45867;52.480;6.056;2022-12-16T01:30:24;63.15;;;30.05;;
60014;SDS011;45867;52.480;6.056;2022-12-16T01:32:50;65.85;;;30.05;;
60014;SDS011;45867;52.480;6.056;2022-12-16T01:35:15;61.42;;;29.33;;
60014;SDS011;45867;52.480;6.056;2022-12-16T01:37:42;59.65;;;29.40;;
60014;SDS011;45867;52.480;6.056;2022-12-16T01:40:12;57.40;;;29.00;;
60014;SDS011;45867;52.480;6.056;2022-12-16T01:42:42;58.42;;;30.05;;
60014;SDS011;45867;52.480;6.056;2022-12-16T01:47:50;60.13;;;28.98;;
60014;SDS011;45867;52.480;6.056;2022-12-16T01:50:18;56.78;;;28.63;;
60014;SDS011;45867;52.480;6.056;2022-12-16T01:52:45;56.97;;;28.50;;
60014;SDS011;45867;52.480;6.056;2022-12-16T01:55:20;55.60;;;27.17;;
60014;SDS011;45867;52.480;6.056;2022-12-16T01:57:57;57.75;;;28.92;;
60014;SDS011;45867;52.480;6.056;2022-12-16T02:00:26;63.95;;;29.38;;
60014;SDS011;45867;52.480;6.056;2022-12-16T02:02:52;60.92;;;29.50;;
60014;SDS011;45867;52.480;6.056;2022-12-16T02:05:19;55.30;;;28.23;;
60014;SDS011;45867;52.480;6.056;2022-12-16T02:07:57;61.13;;;29.48;;
60014;SDS011;45867;52.480;6.056;2022-12-16T02:10:34;59.38;;;28.92;;
60014;SDS011;45867;52.480;6.056;2022-12-16T02:35:03;60.03;;;29.30;;
60014;SDS011;45867;52.480;6.056;2022-12-16T02:40:02;57.30;;;28.70;;
60014;SDS011;45867;52.480;6.056;2022-12-16T02:42:36;56.85;;;28.65;;
60014;SDS011;45867;52.480;6.056;2022-12-16T02:45:11;57.03;;;28.58;;
60014;SDS011;45867;52.480;6.056;2022-12-16T02:47:38;53.30;;;28.83;;
60014;SDS011;45867;52.480;6.056;2022-12-16T02:50:05;53.15;;;28.60;;
60014;SDS011;45867;52.480;6.056;2022-12-16T02:52:56;55.58;;;27.40;;
60014;SDS011;45867;52.480;6.056;2022-12-16T02:55:28;57.80;;;28.83;;
60014;SDS011;45867;52.480;6.056;2022-12-16T02:58:09;55.55;;;28.15;;
60014;SDS011;45867;52.480;6.056;2022-12-16T03:00:52;55.60;;;27.83;;
60014;SDS011;45867;52.480;6.056;2022-12-16T03:03:30;58.65;;;28.38;;
60014;SDS011;45867;52.480;6.056;2022-12-16T03:06:04;53.47;;;27.98;;
60014;SDS011;45867;52.480;6.056;2022-12-16T03:08:32;63.90;;;29.92;;
60014;SDS011;45867;52.480;6.056;2022-12-16T03:11:02;63.85;;;31.05;;
60014;SDS011;45867;52.480;6.056;2022-12-16T03:13:32;60.08;;;29.48;;
60014;SDS011;45867;52.480;6.056;2022-12-16T03:16:03;58.80;;;29.92;;
60014;SDS011;45867;52.480;6.056;2022-12-16T03:18:31;58.95;;;29.45;;
60014;SDS011;45867;52.480;6.056;2022-12-16T03:21:02;60.50;;;30.88;;
60014;SDS011;45867;52.480;6.056;2022-12-16T03:23:32;62.42;;;29.95;;
60014;SDS011;45867;52.480;6.056;2022-12-16T03:26:33;59.95;;;29.58;;
60014;SDS011;45867;52.480;6.056;2022-12-16T03:31:49;65.40;;;29.25;;
60014;SDS011;45867;52.480;6.056;2022-12-16T03:36:59;68.28;;;28.75;;
60014;SDS011;45867;52.480;6.056;2022-12-16T03:39:28;66.47;;;28.85;;
60014;SDS011;45867;52.480;6.056;2022-12-16T03:41:57;57.70;;;28.92;;
60014;SDS011;45867;52.480;6.056;2022-12-16T03:44:23;63.88;;;30.13;;
60014;SDS011;45867;52.480;6.056;2022-12-16T03:46:49;71.97;;;30.48;;
60014;SDS011;45867;52.480;6.056;2022-12-16T03:49:15;58.85;;;28.23;;
60014;SDS011;45867;52.480;6.056;2022-12-16T03:51:41;59.78;;;30.88;;
60014;SDS011;45867;52.480;6.056;2022-12-16T03:54:06;61.67;;;30.23;;
60014;SDS011;45867;52.480;6.056;2022-12-16T03:56:32;60.67;;;30.15;;
60014;SDS011;45867;52.480;6.056;2022-12-16T03:58:57;61.20;;;29.60;;
60014;SDS011;45867;52.480;6.056;2022-12-16T04:01:23;68.35;;;29.92;;
60014;SDS011;45867;52.480;6.056;2022-12-16T04:03:48;61.47;;;31.60;;
60014;SDS011;45867;52.480;6.056;2022-12-16T04:06:14;59.75;;;30.40;;
60014;SDS011;45867;52.480;6.056;2022-12-16T04:08:43;61.17;;;29.73;;
60014;SDS011;45867;52.480;6.056;2022-12-16T04:11:10;65.43;;;29.15;;
60014;SDS011;45867;52.480;6.056;2022-12-16T04:13:55;63.88;;;29.65;;
60014;SDS011;45867;52.480;6.056;2022-12-16T04:16:38;60.85;;;28.52;;
60014;SDS011;45867;52.480;6.056;2022-12-16T04:19:24;66.20;;;29.63;;
60014;SDS011;45867;52.480;6.056;2022-12-16T04:22:15;61.90;;;30.65;;
60014;SDS011;45867;52.480;6.056;2022-12-16T04:25:07;61.50;;;29.48;;
60014;SDS011;45867;52.480;6.056;2022-12-16T04:27:36;61.40;;;30.60;;
60014;SDS011;45867;52.480;6.056;2022-12-16T04:30:01;66.90;;;32.15;;
60014;SDS011;45867;52.480;6.056;2022-12-16T04:32:50;65.05;;;28.20;;
60014;SDS011;45867;52.480;6.056;2022-12-16T04:35:39;69.03;;;31.42;;
60014;SDS011;45867;52.480;6.056;2022-12-16T04:38:23;66.28;;;30.45;;
60014;SDS011;45867;52.480;6.056;2022-12-16T04:41:19;63.45;;;30.48;;
60014;SDS011;45867;52.480;6.056;2022-12-16T04:44:02;77.45;;;30.27;;
60014;SDS011;45867;52.480;6.056;2022-12-16T04:46:47;62.72;;;30.08;;
60014;SDS011;45867;52.480;6.056;2022-12-16T04:49:30;67.93;;;29.52;;
60014;SDS011;45867;52.480;6.056;2022-12-16T04:52:14;63.75;;;28.38;;
60014;SDS011;45867;52.480;6.056;2022-12-16T04:54:58;62.40;;;29.30;;
60014;SDS011;45867;52.480;6.056;2022-12-16T04:57:43;65.15;;;27.95;;
60014;SDS011;45867;52.480;6.056;2022-12-16T05:00:29;54.00;;;26.00;;
60014;SDS011;45867;52.480;6.056;2022-12-16T05:03:13;59.13;;;25.40;;
60014;SDS011;45867;52.480;6.056;2022-12-16T05:05:57;57.58;;;25.35;;
60014;SDS011;45867;52.480;6.056;2022-12-16T05:08:41;51.40;;;25.33;;
60014;SDS011;45867;52.480;6.056;2022-12-16T05:11:25;65.10;;;26.27;;
60014;SDS011;45867;52.480;6.056;2022-12-16T05:14:09;54.08;;;24.42;;
60014;SDS011;45867;52.480;6.056;2022-12-16T05:16:53;51.92;;;25.02;;
60014;SDS011;45867;52.480;6.056;2022-12-16T05:19:37;60.58;;;25.40;;
60014;SDS011;45867;52.480;6.056;2022-12-16T05:22:21;54.15;;;26.50;;
60014;SDS011;45867;52.480;6.056;2022-12-16T05:25:05;57.60;;;25.90;;
60014;SDS011;45867;52.480;6.056;2022-12-16T05:27:54;50.38;;;24.92;;
60014;SDS011;45867;52.480;6.056;2022-12-16T05:30:38;50.03;;;25.10;;
60014;SDS011;45867;52.480;6.056;2022-12-16T05:33:22;52.85;;;24.92;;
60014;SDS011;45867;52.480;6.056;2022-12-16T05:36:07;61.08;;;25.95;;
60014;SDS011;45867;52.480;6.056;2022-12-16T05:38:51;59.85;;;25.30;;
60014;SDS011;45867;52.480;6.056;2022-12-16T05:41:35;52.40;;;25.20;;
60014;SDS011;45867;52.480;6.056;2022-12-16T05:44:19;45.33;;;24.58;;
60014;SDS011;45867;52.480;6.056;2022-12-16T05:47:03;48.28;;;24.88;;
60014;SDS011;45867;52.480;6.056;2022-12-16T05:49:47;50.33;;;24.83;;
60014;SDS011;45867;52.480;6.056;2022-12-16T05:52:32;49.90;;;23.65;;
60014;SDS011;45867;52.480;6.056;2022-12-16T05:55:16;46.28;;;23.52;;
60014;SDS011;45867;52.480;6.056;2022-12-16T05:58:01;45.83;;;21.73;;
60014;SDS011;45867;52.480;6.056;2022-12-16T06:00:45;41.20;;;22.33;;
60014;SDS011;45867;52.480;6.056;2022-12-16T06:03:29;45.80;;;22.02;;
60014;SDS011;45867;52.480;6.056;2022-12-16T06:06:13;47.63;;;21.95;;
60014;SDS011;45867;52.480;6.056;2022-12-16T06:08:57;42.75;;;20.67;;
60014;SDS011;45867;52.480;6.056;2022-12-16T06:11:41;39.83;;;20.45;;
60014;SDS011;45867;52.480;6.056;2022-12-16T06:14:33;52.07;;;22.10;;
60014;SDS011;45867;52.480;6.056;2022-12-16T06:17:27;44.17;;;18.92;;
60014;SDS011;45867;52.480;6.056;2022-12-16T06:20:12;39.13;;;18.45;;
60014;SDS011;45867;52.480;6.056;2022-12-16T06:22:59;35.83;;;18.05;;
60014;SDS011;45867;52.480;6.056;2022-12-16T06:25:43;31.63;;;15.88;;
60014;SDS011;45867;52.480;6.056;2022-12-16T06:28:27;35.65;;;16.60;;
60014;SDS011;45867;52.480;6.056;2022-12-16T06:31:10;31.60;;;16.40;;
60014;SDS011;45867;52.480;6.056;2022-12-16T06:33:54;27.73;;;15.73;;
60014;SDS011;45867;52.480;6.056;2022-12-16T06:36:39;27.63;;;14.57;;
60014;SDS011;45867;52.480;6.056;2022-12-16T06:39:23;28.48;;;14.88;;
60014;SDS011;45867;52.480;6.056;2022-12-16T06:42:06;32.72;;;14.68;;
60014;SDS011;45867;52.480;6.056;2022-12-16T06:44:51;28.70;;;13.98;;
60014;SDS011;45867;52.480;6.056;2022-12-16T06:47:37;27.92;;;14.00;;
60014;SDS011;45867;52.480;6.056;2022-12-16T06:50:22;30.58;;;13.70;;
60014;SDS011;45867;52.480;6.056;2022-12-16T06:53:06;31.40;;;14.40;;
60014;SDS011;45867;52.480;6.056;2022-12-16T06:55:50;31.60;;;13.63;;
60014;SDS011;45867;52.480;6.056;2022-12-16T06:58:34;23.88;;;13.05;;
60014;SDS011;45867;52.480;6.056;2022-12-16T07:01:18;21.02;;;11.70;;
60014;SDS011;45867;52.480;6.056;2022-12-16T07:04:02;24.88;;;10.68;;
60014;SDS011;45867;52.480;6.056;2022-12-16T07:06:45;22.85;;;11.00;;
60014;SDS011;45867;52.480;6.056;2022-12-16T07:09:30;20.20;;;10.07;;
60014;SDS011;45867;52.480;6.056;2022-12-16T07:12:14;30.40;;;10.32;;
60014;SDS011;45867;52.480;6.056;2022-12-16T07:14:58;17.02;;;9.00;;
60014;SDS011;45867;52.480;6.056;2022-12-16T07:17:43;14.80;;;7.90;;
60014;SDS011;45867;52.480;6.056;2022-12-16T07:20:32;17.85;;;7.13;;
60014;SDS011;45867;52.480;6.056;2022-12-16T07:23:16;13.73;;;6.88;;
60014;SDS011;45867;52.480;6.056;2022-12-16T07:26:00;15.90;;;7.20;;
60014;SDS011;45867;52.480;6.056;2022-12-16T07:28:44;17.27;;;7.10;;
60014;SDS011;45867;52.480;6.056;2022-12-16T07:31:28;14.32;;;6.90;;
60014;SDS011;45867;52.480;6.056;2022-12-16T07:34:12;15.35;;;6.05;;
60014;SDS011;45867;52.480;6.056;2022-12-16T07:36:56;16.65;;;6.82;;
60014;SDS011;45867;52.480;6.056;2022-12-16T07:39:40;17.10;;;6.78;;
60014;SDS011;45867;52.480;6.056;2022-12-16T07:42:25;20.17;;;8.00;;
60014;SDS011;45867;52.480;6.056;2022-12-16T07:45:09;14.43;;;6.80;;
60014;SDS011;45867;52.480;6.056;2022-12-16T07:47:53;15.05;;;7.55;;
60014;SDS011;45867;52.480;6.056;2022-12-16T07:50:37;21.35;;;7.60;;
60014;SDS011;45867;52.480;6.056;2022-12-16T07:53:22;17.38;;;8.45;;
60014;SDS011;45867;52.480;6.056;2022-12-16T07:56:06;20.52;;;9.25;;
60014;SDS011;45867;52.480;6.056;2022-12-16T07:58:50;18.52;;;10.25;;
60014;SDS011;45867;52.480;6.056;2022-12-16T08:01:34;20.90;;;9.98;;
60014;SDS011;45867;52.480;6.056;2022-12-16T08:04:19;33.20;;;12.57;;
60014;SDS011;45867;52.480;6.056;2022-12-16T08:07:03;24.45;;;11.13;;
60014;SDS011;45867;52.480;6.056;2022-12-16T08:09:47;22.85;;;10.63;;
60014;SDS011;45867;52.480;6.056;2022-12-16T08:12:31;20.80;;;10.75;;
60014;SDS011;45867;52.480;6.056;2022-12-16T08:15:15;26.27;;;11.95;;
60014;SDS011;45867;52.480;6.056;2022-12-16T08:18:03;27.25;;;13.65;;
60014;SDS011;45867;52.480;6.056;2022-12-16T08:20:46;23.10;;;12.02;;
60014;SDS011;45867;52.480;6.056;2022-12-16T08:23:32;22.52;;;11.30;;
60014;SDS011;45867;52.480;6.056;2022-12-16T08:26:16;21.83;;;11.60;;
60014;SDS011;45867;52.480;6.056;2022-12-16T08:29:01;24.23;;;11.82;;
60014;SDS011;45867;52.480;6.056;2022-12-16T08:31:45;25.98;;;11.27;;
60014;SDS011;45867;52.480;6.056;2022-12-16T08:34:29;27.00;;;13.00;;
60014;SDS011;45867;52.480;6.056;2022-12-16T08:37:13;23.83;;;12.23;;
60014;SDS011;45867;52.480;6.056;2022-12-16T08:39:56;25.70;;;12.65;;
60014;SDS011;45867;52.480;6.056;2022-12-16T08:42:40;31.88;;;12.25;;
60014;SDS011;45867;52.480;6.056;2022-12-16T08:45:24;27.25;;;12.88;;
60014;SDS011;45867;52.480;6.056;2022-12-16T08:48:09;23.58;;;12.80;;
60014;SDS011;45867;52.480;6.056;2022-12-16T08:50:54;23.60;;;12.05;;
60014;SDS011;45867;52.480;6.056;2022-12-16T08:53:39;28.40;;;13.88;;
60014;SDS011;45867;52.480;6.056;2022-12-16T08:56:23;31.60;;;13.02;;
60014;SDS011;45867;52.480;6.056;2022-12-16T08:59:07;28.65;;;13.00;;
60014;SDS011;45867;52.480;6.056;2022-12-16T09:01:51;24.70;;;12.75;;
60014;SDS011;45867;52.480;6.056;2022-12-16T09:04:35;28.65;;;13.38;;
60014;SDS011;45867;52.480;6.056;2022-12-16T09:07:19;28.25;;;14.60;;
60014;SDS011;45867;52.480;6.056;2022-12-16T09:10:04;28.80;;;14.43;;
60014;SDS011;45867;52.480;6.056;2022-12-16T09:12:48;30.63;;;15.35;;
60014;SDS011;45867;52.480;6.056;2022-12-16T09:15:33;44.08;;;16.25;;
60014;SDS011;45867;52.480;6.056;2022-12-16T09:18:17;26.85;;;14.77;;
60014;SDS011;45867;52.480;6.056;2022-12-16T09:21:00;30.20;;;15.18;;
60014;SDS011;45867;52.480;6.056;2022-12-16T09:23:44;34.15;;;16.38;;
60014;SDS011;45867;52.480;6.056;2022-12-16T09:26:28;31.55;;;15.27;;
60014;SDS011;45867;52.480;6.056;2022-12-16T09:29:13;29.20;;;15.98;;
60014;SDS011;45867;52.480;6.056;2022-12-16T09:32:00;30.38;;;15.60;;
60014;SDS011;45867;52.480;6.056;2022-12-16T09:34:45;36.58;;;16.75;;
60014;SDS011;45867;52.480;6.056;2022-12-16T09:37:29;39.92;;;18.65;;
60014;SDS011;45867;52.480;6.056;2022-12-16T09:40:26;37.15;;;18.20;;
60014;SDS011;45867;52.480;6.056;2022-12-16T09:47:08;43.72;;;19.67;;
60014;SDS011;45867;52.480;6.056;2022-12-16T09:49:56;40.42;;;19.77;;
60014;SDS011;45867;52.480;6.056;2022-12-16T09:52:44;47.08;;;21.02;;
60014;SDS011;45867;52.480;6.056;2022-12-16T09:55:38;45.15;;;21.17;;
60014;SDS011;45867;52.480;6.056;2022-12-16T09:58:45;48.58;;;21.38;;
60014;SDS011;45867;52.480;6.056;2022-12-16T10:01:33;44.45;;;21.92;;
60014;SDS011;45867;52.480;6.056;2022-12-16T10:04:20;54.75;;;24.33;;
60014;SDS011;45867;52.480;6.056;2022-12-16T10:07:04;55.83;;;23.42;;
60014;SDS011;45867;52.480;6.056;2022-12-16T10:12:57;57.70;;;24.52;;
60014;SDS011;45867;52.480;6.056;2022-12-16T10:16:08;56.05;;;23.98;;
60014;SDS011;45867;52.480;6.056;2022-12-16T10:19:06;50.42;;;20.67;;
60014;SDS011;45867;52.480;6.056;2022-12-16T10:21:57;50.40;;;21.38;;
60014;SDS011;45867;52.480;6.056;2022-12-16T10:25:09;61.15;;;25.02;;
60014;SDS011;45867;52.480;6.056;2022-12-16T10:28:00;61.38;;;26.00;;
60014;SDS011;45867;52.480;6.056;2022-12-16T10:31:21;47.13;;;21.40;;
60014;SDS011;45867;52.480;6.056;2022-12-16T10:34:09;59.50;;;24.05;;
60014;SDS011;45867;52.480;6.056;2022-12-16T10:36:56;58.63;;;26.08;;
60014;SDS011;45867;52.480;6.056;2022-12-16T10:39:41;53.42;;;24.27;;
60014;SDS011;45867;52.480;6.056;2022-12-16T10:42:31;54.45;;;26.33;;
60014;SDS011;45867;52.480;6.056;2022-12-16T10:48:14;63.55;;;26.75;;
60014;SDS011;45867;52.480;6.056;2022-12-16T10:51:04;57.45;;;26.33;;
60014;SDS011;45867;52.480;6.056;2022-12-16T10:53:55;53.10;;;26.05;;
60014;SDS011;45867;52.480;6.056;2022-12-16T10:56:56;56.03;;;25.60;;
60014;SDS011;45867;52.480;6.056;2022-12-16T10:59:46;52.33;;;25.98;;
60014;SDS011;45867;52.480;6.056;2022-12-16T11:02:30;60.35;;;27.20;;
60014;SDS011;45867;52.480;6.056;2022-12-16T11:05:31;50.10;;;23.92;;
60014;SDS011;45867;52.480;6.056;2022-12-16T11:11:19;51.95;;;24.23;;
60014;SDS011;45867;52.480;6.056;2022-12-16T11:14:27;56.47;;;27.17;;
60014;SDS011;45867;52.480;6.056;2022-12-16T11:17:15;62.38;;;26.20;;
60014;SDS011;45867;52.480;6.056;2022-12-16T11:20:17;63.15;;;26.33;;
60014;SDS011;45867;52.480;6.056;2022-12-16T11:23:13;58.38;;;28.25;;
60014;SDS011;45867;52.480;6.056;2022-12-16T11:26:07;60.35;;;26.40;;
60014;SDS011;45867;52.480;6.056;2022-12-16T11:29:04;60.17;;;27.55;;
60014;SDS011;45867;52.480;6.056;2022-12-16T11:31:50;59.58;;;26.90;;
60014;SDS011;45867;52.480;6.056;2022-12-16T11:34:54;58.45;;;25.27;;
60014;SDS011;45867;52.480;6.056;2022-12-16T11:37:42;62.67;;;29.02;;
60014;SDS011;45867;52.480;6.056;2022-12-16T11:40:28;66.38;;;28.67;;
60014;SDS011;45867;52.480;6.056;2022-12-16T11:43:14;58.22;;;26.90;;
60014;SDS011;45867;52.480;6.056;2022-12-16T11:46:00;59.13;;;26.75;;
60014;SDS011;45867;52.480;6.056;2022-12-16T11:48:49;54.40;;;26.92;;
60014;SDS011;45867;52.480;6.056;2022-12-16T11:51:41;62.00;;;27.33;;
60014;SDS011;45867;52.480;6.056;2022-12-16T11:54:29;61.80;;;26.52;;
60014;SDS011;45867;52.480;6.056;2022-12-16T11:57:21;60.53;;;27.52;;
60014;SDS011;45867;52.480;6.056;2022-12-16T12:00:12;60.10;;;27.63;;
60014;SDS011;45867;52.480;6.056;2022-12-16T12:03:05;53.03;;;26.20;;
60014;SDS011;45867;52.480;6.056;2022-12-16T12:06:04;56.00;;;27.70;;
60014;SDS011;45867;52.480;6.056;2022-12-16T12:09:17;59.83;;;28.08;;
60014;SDS011;45867;52.480;6.056;2022-12-16T12:18:04;63.38;;;26.63;;
60014;SDS011;45867;52.480;6.056;2022-12-16T12:24:05;65.53;;;26.70;;
60014;SDS011;45867;52.480;6.056;2022-12-16T12:27:24;66.30;;;27.45;;
60014;SDS011;45867;52.480;6.056;2022-12-16T12:30:34;63.15;;;27.00;;
60014;SDS011;45867;52.480;6.056;2022-12-16T12:36:37;63.67;;;28.05;;
60014;SDS011;45867;52.480;6.056;2022-12-16T12:39:30;60.42;;;25.80;;
60014;SDS011;45867;52.480;6.056;2022-12-16T12:42:32;56.17;;;27.00;;
60014;SDS011;45867;52.480;6.056;2022-12-16T12:48:27;56.08;;;26.55;;
60014;SDS011;45867;52.480;6.056;2022-12-16T12:54:19;71.97;;;27.80;;
60014;SDS011;45867;52.480;6.056;2022-12-16T12:57:25;69.90;;;29.23;;
60014;SDS011;45867;52.480;6.056;2022-12-16T13:06:14;63.05;;;28.52;;
60014;SDS011;45867;52.480;6.056;2022-12-16T13:09:00;64.55;;;28.00;;
60014;SDS011;45867;52.480;6.056;2022-12-16T13:12:18;60.38;;;28.10;;
60014;SDS011;45867;52.480;6.056;2022-12-16T13:15:05;61.85;;;26.88;;
60014;SDS011;45867;52.480;6.056;2022-12-16T13:20:49;72.85;;;30.88;;
60014;SDS011;45867;52.480;6.056;2022-12-16T13:23:35;78.13;;;29.75;;
60014;SDS011;45867;52.480;6.056;2022-12-16T13:26:25;73.93;;;31.02;;
60014;SDS011;45867;52.480;6.056;2022-12-16T13:32:01;72.32;;;31.15;;
60014;SDS011;45867;52.480;6.056;2022-12-16T13:37:54;86.60;;;31.33;;
60014;SDS011;45867;52.480;6.056;2022-12-16T13:40:56;74.80;;;30.08;;
60014;SDS011;45867;52.480;6.056;2022-12-16T13:43:46;75.88;;;30.67;;
60014;SDS011;45867;52.480;6.056;2022-12-16T13:55:13;62.53;;;28.08;;
60014;SDS011;45867;52.480;6.056;2022-12-16T14:00:56;72.85;;;29.02;;
60014;SDS011;45867;52.480;6.056;2022-12-16T14:03:47;66.88;;;29.27;;
60014;SDS011;45867;52.480;6.056;2022-12-16T14:06:33;72.15;;;30.38;;
60014;SDS011;45867;52.480;6.056;2022-12-16T14:15:40;74.75;;;31.58;;
60014;SDS011;45867;52.480;6.056;2022-12-16T14:21:55;78.60;;;30.98;;
60014;SDS011;45867;52.480;6.056;2022-12-16T14:24:51;79.93;;;31.15;;
60014;SDS011;45867;52.480;6.056;2022-12-16T14:27:36;77.35;;;32.15;;
60014;SDS011;45867;52.480;6.056;2022-12-16T14:30:23;76.88;;;31.02;;
60014;SDS011;45867;52.480;6.056;2022-12-16T14:39:11;81.18;;;32.60;;
60014;SDS011;45867;52.480;6.056;2022-12-16T14:42:18;76.35;;;29.80;;
60014;SDS011;45867;52.480;6.056;2022-12-16T14:45:39;81.22;;;29.83;;
60014;SDS011;45867;52.480;6.056;2022-12-16T14:48:32;78.47;;;29.88;;
60014;SDS011;45867;52.480;6.056;2022-12-16T14:51:25;87.70;;;33.22;;
60014;SDS011;45867;52.480;6.056;2022-12-16T14:57:22;82.85;;;32.72;;
60014;SDS011;45867;52.480;6.056;2022-12-16T15:03:38;81.05;;;33.05;;
60014;SDS011;45867;52.480;6.056;2022-12-16T15:06:17;75.80;;;30.50;;
60014;SDS011;45867;52.480;6.056;2022-12-16T15:11:55;71.35;;;29.70;;
60014;SDS011;45867;52.480;6.056;2022-12-16T15:14:39;77.72;;;32.38;;
60014;SDS011;45867;52.480;6.056;2022-12-16T15:17:29;77.43;;;32.42;;
60014;SDS011;45867;52.480;6.056;2022-12-16T15:20:19;79.28;;;32.20;;
60014;SDS011;45867;52.480;6.056;2022-12-16T15:23:12;86.15;;;32.97;;
60014;SDS011;45867;52.480;6.056;2022-12-16T15:26:03;80.20;;;33.10;;
60014;SDS011;45867;52.480;6.056;2022-12-16T15:28:48;87.63;;;33.40;;
60014;SDS011;45867;52.480;6.056;2022-12-16T15:31:33;87.43;;;34.05;;
60014;SDS011;45867;52.480;6.056;2022-12-16T15:37:03;76.50;;;32.20;;
60014;SDS011;45867;52.480;6.056;2022-12-16T15:39:56;92.97;;;36.35;;
60014;SDS011;45867;52.480;6.056;2022-12-16T15:42:40;74.05;;;32.50;;
60014;SDS011;45867;52.480;6.056;2022-12-16T15:45:26;78.57;;;32.00;;
60014;SDS011;45867;52.480;6.056;2022-12-16T15:51:19;80.45;;;33.90;;
60014;SDS011;45867;52.480;6.056;2022-12-16T15:54:04;74.05;;;32.75;;
60014;SDS011;45867;52.480;6.056;2022-12-16T15:56:48;87.88;;;33.42;;
60014;SDS011;45867;52.480;6.056;2022-12-16T15:59:35;76.63;;;31.65;;
60014;SDS011;45867;52.480;6.056;2022-12-16T16:02:34;78.13;;;33.90;;
60014;SDS011;45867;52.480;6.056;2022-12-16T16:05:19;78.60;;;34.25;;
60014;SDS011;45867;52.480;6.056;2022-12-16T16:08:18;94.63;;;36.78;;
60014;SDS011;45867;52.480;6.056;2022-12-16T16:11:03;84.38;;;36.47;;
60014;SDS011;45867;52.480;6.056;2022-12-16T16:13:47;85.57;;;33.95;;
60014;SDS011;45867;52.480;6.056;2022-12-16T16:16:32;72.68;;;32.72;;
60014;SDS011;45867;52.480;6.056;2022-12-16T16:19:20;71.90;;;31.63;;
60014;SDS011;45867;52.480;6.056;2022-12-16T16:22:20;74.13;;;31.45;;
60014;SDS011;45867;52.480;6.056;2022-12-16T16:25:04;77.65;;;32.17;;
60014;SDS011;45867;52.480;6.056;2022-12-16T16:27:48;74.28;;;31.48;;
60014;SDS011;45867;52.480;6.056;2022-12-16T16:30:32;70.70;;;31.35;;
60014;SDS011;45867;52.480;6.056;2022-12-16T16:33:16;74.22;;;31.65;;
60014;SDS011;45867;52.480;6.056;2022-12-16T16:36:00;65.35;;;30.42;;
60014;SDS011;45867;52.480;6.056;2022-12-16T16:38:44;74.30;;;30.33;;
60014;SDS011;45867;52.480;6.056;2022-12-16T16:41:27;69.90;;;31.55;;
60014;SDS011;45867;52.480;6.056;2022-12-16T16:44:11;74.88;;;32.20;;
60014;SDS011;45867;52.480;6.056;2022-12-16T16:46:56;84.55;;;33.17;;
60014;SDS011;45867;52.480;6.056;2022-12-16T16:49:42;80.38;;;31.52;;
60014;SDS011;45867;52.480;6.056;2022-12-16T16:52:29;76.50;;;32.47;;
60014;SDS011;45867;52.480;6.056;2022-12-16T16:55:15;84.00;;;33.80;;
60014;SDS011;45867;52.480;6.056;2022-12-16T16:58:12;85.97;;;33.97;;
60014;SDS011;45867;52.480;6.056;2022-12-16T17:00:59;83.25;;;32.15;;
60014;SDS011;45867;52.480;6.056;2022-12-16T17:03:43;79.63;;;33.40;;
60014;SDS011;45867;52.480;6.056;2022-12-16T17:06:27;81.82;;;34.65;;
60014;SDS011;45867;52.480;6.056;2022-12-16T17:09:11;90.97;;;34.47;;
60014;SDS011;45867;52.480;6.056;2022-12-16T17:11:55;99.22;;;35.65;;
60014;SDS011;45867;52.480;6.056;2022-12-16T17:14:39;77.50;;;35.10;;
60014;SDS011;45867;52.480;6.056;2022-12-16T17:17:23;86.35;;;34.67;;
60014;SDS011;45867;52.480;6.056;2022-12-16T17:20:07;85.93;;;35.40;;
60014;SDS011;45867;52.480;6.056;2022-12-16T17:22:57;77.90;;;33.33;;
60014;SDS011;45867;52.480;6.056;2022-12-16T17:25:41;88.10;;;35.40;;
60014;SDS011;45867;52.480;6.056;2022-12-16T17:28:25;93.28;;;36.10;;
60014;SDS011;45867;52.480;6.056;2022-12-16T17:31:17;90.85;;;34.20;;
60014;SDS011;45867;52.480;6.056;2022-12-16T17:34:01;82.78;;;33.92;;
60014;SDS011;45867;52.480;6.056;2022-12-16T17:36:45;88.00;;;35.88;;
60014;SDS011;45867;52.480;6.056;2022-12-16T17:39:29;87.07;;;36.08;;
60014;SDS011;45867;52.480;6.056;2022-12-16T17:42:13;93.22;;;33.25;;
60014;SDS011;45867;52.480;6.056;2022-12-16T17:44:57;89.53;;;35.08;;
60014;SDS011;45867;52.480;6.056;2022-12-16T17:47:41;82.25;;;34.08;;
60014;SDS011;45867;52.480;6.056;2022-12-16T17:50:33;98.43;;;37.00;;
60014;SDS011;45867;52.480;6.056;2022-12-16T17:53:17;89.22;;;34.58;;